createdAt,value
2018-03-24T00:01:49.699Z,23.00
2018-03-24T00:04:17.006Z,24.20
2018-03-24T00:06:44.722Z,27.23
2018-03-24T00:09:12.058Z,23.27
2018-03-24T00:11:39.370Z,27.37
2018-03-24T00:14:07.097Z,24.97
2018-03-24T00:16:34.415Z,29.47
2018-03-24T00:19:01.735Z,29.77
2018-03-24T00:21:29.036Z,29.27
2018-03-24T00:23:56.358Z,25.83
2018-03-24T00:26:24.066Z,24.33
2018-03-24T00:28:51.402Z,30.33
2018-03-24T00:31:18.700Z,29.37
2018-03-24T00:33:46.011Z,30.17
2018-03-24T00:36:13.329Z,28.70
2018-03-24T00:38:41.051Z,29.43
2018-03-24T00:41:18.883Z,30.00
2018-03-24T00:43:46.181Z,28.03
2018-03-24T00:46:13.497Z,29.90
2018-03-24T00:48:42.184Z,31.67
2018-03-24T00:51:09.906Z,23.93
2018-03-24T00:53:40.802Z,29.57
2018-03-24T00:59:00.905Z,26.97
2018-03-24T01:01:28.281Z,33.47
2018-03-24T01:03:55.609Z,31.00
2018-03-24T01:06:22.929Z,29.03
2018-03-24T01:11:43.149Z,24.70
2018-03-24T01:14:10.487Z,29.47
2018-03-24T01:16:37.789Z,30.20
2018-03-24T01:19:05.105Z,31.80
2018-03-24T01:21:32.466Z,28.63
2018-03-24T01:23:59.775Z,25.60
2018-03-24T01:26:27.085Z,24.70
2018-03-24T01:28:55.795Z,29.03
2018-03-24T01:31:23.114Z,26.20
2018-03-24T01:33:50.412Z,28.73
2018-03-24T01:36:17.766Z,27.90
2018-03-24T01:38:45.065Z,27.40
2018-03-24T01:41:12.653Z,35.03
2018-03-24T01:43:41.650Z,24.13
2018-03-24T01:46:09.552Z,30.07
2018-03-24T01:48:37.072Z,27.27
2018-03-24T01:51:04.942Z,27.20
2018-03-24T01:53:44.727Z,25.40
2018-03-24T01:56:12.247Z,25.13
2018-03-24T01:58:40.114Z,28.17
2018-03-24T02:01:08.083Z,26.23
2018-03-24T02:03:36.057Z,26.80
2018-03-24T02:06:03.447Z,27.83
2018-03-24T02:08:30.866Z,26.23
2018-03-24T02:10:58.737Z,27.60
2018-03-24T02:13:26.702Z,24.23
2018-03-24T02:15:54.570Z,25.30
2018-03-24T02:18:22.421Z,28.83
2018-03-24T02:23:59.969Z,23.60
2018-03-24T02:26:27.512Z,25.40
2018-03-24T02:28:55.380Z,27.93
2018-03-24T02:31:23.349Z,23.13
2018-03-24T02:33:51.320Z,28.47
2018-03-24T02:36:19.295Z,28.03
2018-03-24T02:38:46.975Z,25.77
2018-03-24T02:41:14.543Z,29.93
2018-03-24T02:43:42.110Z,27.67
2018-03-24T02:46:09.645Z,27.23
2018-03-24T02:48:37.296Z,28.10
2018-03-24T02:51:05.673Z,25.73
2018-03-24T02:53:33.645Z,31.33
2018-03-24T02:56:01.511Z,26.30
2018-03-24T02:58:38.902Z,29.73
2018-03-24T03:01:07.385Z,26.23
2018-03-24T03:03:36.378Z,27.90
2018-03-24T03:06:03.969Z,27.37
2018-03-24T03:08:31.702Z,26.17
2018-03-24T03:10:59.675Z,25.40
2018-03-24T03:13:28.361Z,27.77
2018-03-24T03:15:56.431Z,29.73
2018-03-24T03:18:24.401Z,28.10
2018-03-24T03:20:51.962Z,29.97
2018-03-24T03:23:23.034Z,25.40
2018-03-24T03:25:50.563Z,27.00
2018-03-24T03:28:20.682Z,26.23
2018-03-24T03:30:52.094Z,25.37
2018-03-24T03:33:19.695Z,26.03
2018-03-24T03:35:47.561Z,24.13
2018-03-24T03:38:15.427Z,29.00
2018-03-24T03:40:42.903Z,27.07
2018-03-24T03:43:10.452Z,27.07
2018-03-24T03:45:38.517Z,29.53
2018-03-24T03:48:06.490Z,25.03
2018-03-24T03:50:33.966Z,24.80
2018-03-24T03:53:01.506Z,29.83
2018-03-24T03:55:29.002Z,24.97
2018-03-24T03:57:56.525Z,30.63
2018-03-24T04:00:25.824Z,27.43
2018-03-24T04:02:53.793Z,25.70
2018-03-24T04:05:22.204Z,30.87
2018-03-24T04:07:49.772Z,27.13
2018-03-24T04:10:17.297Z,27.87
2018-03-24T04:12:45.189Z,30.43
2018-03-24T04:15:12.723Z,25.33
2018-03-24T04:17:42.636Z,25.17
2018-03-24T04:20:10.811Z,31.27
2018-03-24T04:22:47.398Z,30.57
2018-03-24T04:25:22.313Z,26.00
2018-03-24T04:27:51.923Z,25.67
2018-03-24T04:30:19.893Z,25.23
2018-03-24T04:32:49.807Z,24.03
2018-03-24T04:35:17.778Z,28.23
2018-03-24T04:37:45.645Z,27.70
2018-03-24T04:40:13.924Z,28.40
2018-03-24T04:42:42.507Z,24.97
2018-03-24T04:45:10.375Z,29.07
2018-03-24T04:47:37.973Z,30.47
2018-03-24T04:50:05.556Z,28.90
2018-03-24T04:52:32.994Z,30.33
2018-03-24T04:55:00.512Z,25.73
2018-03-24T04:57:28.320Z,27.90
2018-03-24T04:59:55.734Z,27.10
2018-03-24T05:02:23.601Z,25.90
2018-03-24T05:04:51.572Z,23.87
2018-03-24T05:07:19.541Z,24.77
2018-03-24T05:09:47.410Z,27.73
2018-03-24T05:12:15.276Z,28.00
2018-03-24T05:14:42.836Z,25.50
2018-03-24T05:17:15.414Z,27.10
2018-03-24T05:19:44.032Z,29.50
2018-03-24T05:22:11.558Z,24.60
2018-03-24T05:24:39.036Z,28.87
2018-03-24T05:27:06.576Z,28.47
2018-03-24T05:29:34.546Z,29.77
2018-03-24T05:32:02.027Z,44.27
2018-03-24T05:34:29.562Z,30.03
2018-03-24T05:36:57.530Z,24.93
2018-03-24T05:39:25.418Z,31.40
2018-03-24T05:41:58.694Z,25.73
2018-03-24T05:44:26.668Z,29.93
2018-03-24T05:46:54.136Z,29.10
2018-03-24T05:49:21.682Z,27.03
2018-03-24T05:51:49.653Z,27.03
2018-03-24T05:54:18.162Z,29.53
2018-03-24T05:56:45.796Z,27.43
2018-03-24T05:59:13.662Z,25.77
2018-03-24T06:01:41.529Z,29.93
2018-03-24T06:04:09.009Z,26.70
2018-03-24T06:06:36.553Z,26.53
2018-03-24T06:09:04.127Z,28.77
2018-03-24T06:11:31.669Z,28.23
2018-03-24T06:13:59.639Z,30.83
2018-03-24T06:16:27.609Z,37.53
2018-03-24T06:18:55.576Z,29.00
2018-03-24T06:21:23.550Z,28.00
2018-03-24T06:23:51.029Z,27.40
2018-03-24T06:26:18.666Z,29.60
2018-03-24T06:28:46.124Z,22.67
2018-03-24T06:31:23.519Z,23.93
2018-03-24T06:33:51.484Z,26.43
2018-03-24T06:39:18.758Z,27.50
2018-03-24T06:41:46.730Z,25.97
2018-03-24T06:44:14.698Z,28.20
2018-03-24T06:46:42.567Z,30.23
2018-03-24T06:49:10.458Z,28.13
2018-03-24T06:51:37.919Z,28.03
2018-03-24T06:54:12.721Z,26.23
2018-03-24T06:56:40.692Z,23.37
2018-03-24T06:59:09.399Z,20.83
2018-03-24T07:01:36.941Z,27.57
2018-03-24T07:04:06.361Z,23.47
2018-03-24T07:06:33.934Z,23.63
2018-03-24T07:09:01.872Z,24.03
2018-03-24T07:11:29.740Z,21.10
2018-03-24T07:13:57.564Z,23.30
2018-03-24T07:16:30.697Z,25.37
2018-03-24T07:19:00.672Z,26.57
2018-03-24T07:21:28.279Z,33.73
2018-03-24T07:23:56.145Z,26.43
2018-03-24T07:26:24.045Z,23.57
2018-03-24T07:28:54.787Z,28.07
2018-03-24T07:31:22.410Z,23.80
2018-03-24T07:33:56.247Z,24.23
2018-03-24T07:36:23.772Z,25.80
2018-03-24T07:38:51.660Z,25.83
2018-03-24T07:41:19.166Z,28.63
2018-03-24T07:43:46.688Z,24.07
2018-03-24T07:46:15.240Z,30.40
2018-03-24T07:48:43.132Z,23.03
2018-03-24T07:51:10.668Z,22.97
2018-03-24T07:53:40.583Z,23.23
2018-03-24T07:56:08.143Z,20.53
2018-03-24T07:58:36.111Z,24.10
2018-03-24T08:01:07.977Z,26.20
2018-03-24T08:03:35.431Z,24.37
2018-03-24T08:06:03.537Z,21.73
2018-03-24T08:08:36.167Z,26.60
2018-03-24T08:11:04.472Z,22.93
2018-03-24T08:13:34.068Z,25.63
2018-03-24T08:16:02.647Z,25.37
2018-03-24T08:18:30.519Z,28.87
2018-03-24T08:20:58.488Z,25.13
2018-03-24T08:23:26.084Z,23.40
2018-03-24T08:25:53.645Z,33.13
2018-03-24T08:28:21.071Z,29.57
2018-03-24T08:30:49.140Z,36.07
2018-03-24T08:33:17.110Z,38.43
2018-03-24T08:35:45.012Z,32.63
2018-03-24T08:38:12.535Z,44.87
2018-03-24T08:40:40.449Z,36.00
2018-03-24T08:43:07.897Z,36.50
2018-03-24T08:45:35.378Z,33.80
2018-03-24T08:48:03.699Z,35.13
2018-03-24T08:50:31.846Z,35.87
2018-03-24T08:52:59.535Z,32.37
2018-03-24T08:55:27.511Z,43.47
2018-03-24T08:57:55.065Z,43.87
2018-03-24T09:00:22.625Z,34.07
2018-03-24T09:02:50.594Z,45.17
2018-03-24T09:05:19.382Z,36.03
2018-03-24T09:07:47.669Z,47.20
2018-03-24T09:10:15.552Z,32.20
2018-03-24T09:12:43.014Z,42.30
2018-03-24T09:15:10.513Z,42.40
2018-03-24T09:17:38.550Z,36.87
2018-03-24T09:20:07.265Z,39.43
2018-03-24T09:22:35.139Z,38.97
2018-03-24T09:25:07.608Z,38.23
2018-03-24T09:27:35.988Z,41.57
2018-03-24T09:30:03.552Z,43.70
2018-03-24T09:32:31.025Z,42.83
2018-03-24T09:34:58.745Z,48.00
2018-03-24T09:37:26.186Z,48.57
2018-03-24T09:39:53.662Z,46.10
2018-03-24T09:42:21.795Z,48.70
2018-03-24T09:44:50.548Z,45.37
2018-03-24T09:47:18.517Z,50.97
2018-03-24T09:49:47.939Z,38.47
2018-03-24T09:52:15.582Z,36.97
2018-03-24T09:54:43.142Z,42.80
2018-03-24T09:57:10.994Z,37.10
2018-03-24T09:59:39.076Z,39.40
2018-03-24T10:04:50.580Z,31.40
2018-03-24T10:07:18.313Z,33.40
2018-03-24T10:09:54.787Z,37.03
2018-03-24T10:12:23.736Z,41.57
2018-03-24T10:14:51.066Z,36.90
2018-03-24T10:17:18.382Z,37.33
2018-03-24T10:19:45.714Z,41.07
2018-03-24T10:22:44.574Z,33.30
2018-03-24T10:25:11.901Z,33.53
2018-03-24T10:27:39.285Z,36.43
2018-03-24T10:30:06.610Z,34.03
2018-03-24T10:32:34.718Z,35.40
2018-03-24T10:35:06.338Z,35.03
2018-03-24T10:37:53.871Z,34.70
2018-03-24T10:40:21.309Z,43.03
2018-03-24T10:43:09.981Z,41.73
2018-03-24T10:45:37.430Z,31.30
2018-03-24T10:48:07.829Z,28.73
2018-03-24T10:50:46.714Z,31.37
2018-03-24T10:53:14.106Z,28.87
2018-03-24T10:55:41.532Z,30.03
2018-03-24T10:58:08.867Z,30.53
2018-03-24T11:00:58.876Z,29.07
2018-03-24T11:03:26.630Z,24.47
2018-03-24T11:05:53.980Z,25.80
2018-03-24T11:08:21.389Z,25.23
2018-03-24T11:10:55.745Z,26.00
2018-03-24T11:13:23.518Z,24.73
2018-03-24T11:15:51.259Z,28.83
2018-03-24T11:18:18.616Z,28.27
2018-03-24T11:20:46.024Z,27.40
2018-03-24T11:23:13.775Z,28.67
2018-03-24T11:25:41.171Z,27.67
2018-03-24T11:28:08.540Z,30.50
2018-03-24T11:30:41.928Z,26.50
2018-03-24T11:33:09.296Z,25.90
2018-03-24T11:38:10.366Z,25.43
2018-03-24T11:40:37.712Z,24.13
2018-03-24T11:43:05.095Z,28.10
2018-03-24T11:45:32.434Z,24.10
2018-03-24T11:47:59.818Z,24.00
2018-03-24T11:50:27.153Z,23.47
2018-03-24T11:52:54.508Z,26.43
2018-03-24T11:55:22.956Z,20.93
2018-03-24T11:57:50.306Z,20.27
2018-03-24T12:00:17.702Z,22.80
2018-03-24T12:02:45.023Z,22.33
2018-03-24T12:05:32.120Z,21.07
2018-03-24T12:08:14.584Z,19.03
2018-03-24T12:16:41.678Z,20.90
2018-03-24T12:19:09.002Z,17.40
2018-03-24T12:21:51.093Z,21.80
2018-03-24T12:24:18.459Z,20.40
2018-03-24T12:26:46.198Z,21.00
2018-03-24T12:29:13.519Z,25.03
2018-03-24T12:31:49.417Z,19.63
2018-03-24T12:34:16.801Z,21.40
2018-03-24T12:39:41.950Z,17.33
2018-03-24T12:42:09.690Z,18.00
2018-03-24T12:44:40.631Z,19.13
2018-03-24T12:47:07.958Z,16.83
2018-03-24T12:49:35.304Z,16.23
2018-03-24T12:52:11.469Z,16.63
2018-03-24T12:54:38.829Z,16.40
2018-03-24T12:57:06.139Z,20.13
2018-03-24T12:59:33.845Z,19.50
2018-03-24T13:02:01.210Z,22.43
2018-03-24T13:04:30.468Z,19.10
2018-03-24T13:06:58.257Z,13.13
2018-03-24T13:18:16.760Z,23.27
2018-03-24T13:20:52.670Z,20.23
2018-03-24T13:23:20.100Z,17.30
2018-03-24T13:25:47.410Z,16.97
2018-03-24T13:28:34.333Z,15.93
2018-03-24T13:33:59.937Z,16.43
2018-03-24T13:36:27.383Z,20.23
2018-03-24T13:38:54.739Z,20.03
2018-03-24T13:44:31.288Z,17.00
2018-03-24T13:52:53.081Z,20.67
2018-03-24T13:55:21.531Z,18.23
2018-03-24T14:48:52.495Z,20.80
2018-03-24T14:51:22.190Z,19.13
2018-03-24T15:13:04.357Z,19.93
2018-03-24T15:15:31.769Z,16.40
2018-03-24T15:17:59.573Z,19.67
2018-03-24T15:23:35.826Z,14.00
2018-03-24T15:29:24.304Z,14.80
2018-03-24T15:32:03.473Z,15.10
2018-03-24T15:34:42.796Z,16.00
2018-03-24T15:37:47.283Z,21.10
2018-03-24T15:40:20.058Z,20.97
2018-03-24T15:42:52.791Z,17.00
2018-03-24T15:45:31.040Z,15.37
2018-03-24T15:47:58.362Z,13.90
2018-03-24T15:50:25.683Z,12.97
2018-03-24T15:52:53.108Z,15.97
2018-03-24T15:55:44.015Z,14.53
2018-03-24T15:58:11.594Z,16.50
2018-03-24T16:00:39.512Z,18.35
2018-03-24T16:03:07.369Z,16.50
2018-03-24T16:05:34.679Z,14.13
2018-03-24T16:11:00.362Z,16.07
2018-03-24T16:13:27.737Z,13.47
2018-03-24T16:16:01.027Z,13.93
2018-03-24T16:18:44.751Z,14.83
2018-03-24T16:21:26.684Z,12.73
2018-03-24T16:24:12.309Z,12.83
2018-03-24T16:26:40.115Z,12.00
2018-03-24T16:29:07.432Z,11.53
2018-03-24T16:31:34.821Z,12.63
2018-03-24T16:34:02.579Z,13.67
2018-03-24T16:36:29.940Z,12.90
2018-03-24T16:38:57.259Z,13.87
2018-03-24T16:41:24.659Z,14.33
2018-03-24T16:46:42.439Z,11.73
2018-03-24T16:49:09.840Z,12.63
2018-03-24T16:51:37.277Z,13.33
2018-03-24T16:54:04.637Z,13.67
2018-03-24T16:56:31.949Z,12.33
2018-03-24T16:58:59.659Z,13.53
2018-03-24T17:01:27.403Z,12.67
2018-03-24T17:03:54.708Z,12.80
2018-03-24T17:06:22.142Z,16.40
2018-03-24T17:08:49.477Z,13.33
2018-03-24T17:11:16.930Z,13.83
2018-03-24T17:13:44.397Z,14.23
2018-03-24T17:16:11.713Z,17.37
2018-03-24T17:18:39.046Z,14.23
2018-03-24T17:21:06.423Z,11.23
2018-03-24T17:23:43.763Z,12.47
2018-03-24T17:26:11.103Z,13.37
2018-03-24T17:28:38.448Z,14.70
2018-03-24T17:31:05.833Z,11.43
2018-03-24T17:33:33.154Z,13.23
2018-03-24T17:36:01.505Z,12.17
2018-03-24T17:38:28.886Z,11.27
2018-03-24T17:40:56.276Z,13.63
2018-03-24T17:43:23.609Z,13.20
2018-03-24T17:45:50.968Z,11.10
2018-03-24T17:48:18.332Z,10.23
2018-03-24T17:50:45.939Z,11.00
2018-03-24T17:53:13.294Z,13.53
2018-03-24T17:55:40.719Z,11.97
2018-03-24T17:58:08.009Z,10.70
2018-03-24T18:00:35.736Z,15.70
2018-03-24T18:03:03.500Z,13.93
2018-03-24T18:05:30.796Z,13.23
2018-03-24T18:08:01.819Z,12.30
2018-03-24T18:10:29.150Z,15.10
2018-03-24T18:12:56.502Z,14.00
2018-03-24T18:15:23.817Z,13.37
2018-03-24T18:17:51.183Z,11.43
2018-03-24T18:20:18.534Z,12.30
2018-03-24T18:22:45.957Z,14.63
2018-03-24T18:25:13.318Z,12.80
2018-03-24T18:27:40.655Z,14.03
2018-03-24T18:30:07.986Z,14.57
2018-03-24T18:32:35.338Z,14.87
2018-03-24T18:35:02.710Z,15.10
2018-03-24T18:37:30.086Z,12.00
2018-03-24T18:39:57.433Z,11.20
2018-03-24T18:42:28.779Z,15.93
2018-03-24T18:44:56.150Z,13.80
2018-03-24T18:47:23.486Z,12.30
2018-03-24T18:49:50.794Z,12.13
2018-03-24T18:52:18.123Z,11.50
2018-03-24T18:54:45.458Z,13.07
2018-03-24T18:57:12.787Z,12.03
2018-03-24T18:59:40.498Z,12.90
2018-03-24T19:02:18.787Z,14.43
2018-03-24T19:04:46.127Z,11.33
2018-03-24T19:07:13.843Z,13.57
2018-03-24T19:09:48.597Z,14.50
2018-03-24T19:12:15.983Z,14.90
2018-03-24T19:14:43.304Z,17.30
2018-03-24T19:17:10.646Z,17.27
2018-03-24T19:19:45.729Z,16.87
2018-03-24T19:22:13.038Z,17.07
2018-03-24T19:24:41.460Z,20.07
2018-03-24T19:27:09.279Z,21.33
2018-03-24T19:29:36.611Z,17.33
2018-03-24T19:32:03.938Z,20.73
2018-03-24T19:34:37.614Z,22.17
2018-03-24T19:37:04.949Z,17.63
2018-03-24T19:39:32.700Z,20.30
2018-03-24T19:42:00.161Z,20.97
2018-03-24T19:44:35.298Z,15.13
2018-03-24T19:47:04.686Z,22.00
2018-03-24T19:49:33.005Z,17.30
2018-03-24T19:52:00.747Z,15.60
2018-03-24T19:54:28.090Z,15.13
2018-03-24T19:56:55.447Z,15.93
2018-03-24T19:59:22.786Z,13.67
2018-03-24T20:01:51.109Z,18.83
2018-03-24T20:04:18.485Z,17.57
2018-03-24T20:06:46.279Z,17.30
2018-03-24T20:09:13.715Z,16.80
2018-03-24T20:11:41.503Z,18.47
2018-03-24T20:14:08.897Z,14.93
2018-03-24T20:16:36.386Z,14.53
2018-03-24T20:19:03.802Z,18.10
2018-03-24T20:21:43.371Z,15.57
2018-03-24T20:24:10.852Z,15.83
2018-03-24T20:26:38.267Z,17.63
2018-03-24T20:29:09.468Z,19.93
2018-03-24T20:31:36.888Z,12.07
2018-03-24T20:34:04.273Z,14.20
2018-03-24T20:36:31.662Z,16.63
2018-03-24T20:38:59.069Z,14.87
2018-03-24T20:41:26.492Z,18.80
2018-03-24T20:43:53.864Z,16.03
2018-03-24T20:46:33.833Z,15.40
2018-03-24T20:49:01.909Z,17.03
2018-03-24T20:51:30.628Z,15.23
2018-03-24T20:53:58.054Z,16.30
2018-03-24T20:56:25.831Z,17.00
2018-03-24T20:58:53.233Z,15.27
2018-03-24T21:01:20.623Z,15.63
2018-03-24T21:03:48.064Z,12.87
2018-03-24T21:06:15.906Z,14.17
2018-03-24T21:08:43.332Z,14.30
2018-03-24T21:11:10.771Z,14.83
2018-03-24T21:13:38.153Z,12.90
2018-03-24T21:16:05.591Z,12.87
2018-03-24T21:18:33.439Z,15.10
2018-03-24T21:21:04.091Z,17.10
2018-03-24T21:23:36.172Z,12.93
2018-03-24T21:26:07.367Z,14.50
2018-03-24T21:28:34.807Z,13.00
2018-03-24T21:31:02.150Z,11.80
2018-03-24T21:33:31.195Z,11.97
2018-03-24T21:35:58.572Z,14.20
2018-03-24T21:38:25.946Z,12.43
2018-03-24T21:40:53.482Z,14.77
2018-03-24T21:43:20.920Z,13.77
2018-03-24T21:45:58.499Z,14.97
2018-03-24T21:48:32.359Z,13.40
2018-03-24T21:51:10.287Z,12.33
2018-03-24T21:53:37.672Z,13.67
2018-03-24T21:56:05.242Z,14.20
2018-03-24T21:58:33.043Z,13.17
2018-03-24T22:01:01.078Z,11.67
2018-03-24T22:03:30.937Z,11.03
2018-03-24T22:05:58.399Z,15.20
2018-03-24T22:08:25.836Z,13.57
2018-03-24T22:10:56.418Z,12.77
2018-03-24T22:13:23.789Z,15.90
2018-03-24T22:15:52.056Z,13.40
2018-03-24T22:18:19.902Z,17.10
2018-03-24T22:20:47.291Z,15.47
2018-03-24T22:23:14.763Z,11.13
2018-03-24T22:25:42.217Z,13.03
2018-03-24T22:28:09.647Z,13.53
2018-03-24T22:33:27.796Z,13.03
2018-03-24T22:36:02.868Z,15.83
2018-03-24T22:38:30.498Z,11.70
2018-03-24T22:40:58.424Z,14.20
2018-03-24T22:43:25.856Z,15.47
2018-03-24T22:45:53.176Z,12.50
2018-03-24T22:48:20.781Z,17.80
2018-03-24T22:50:48.206Z,14.60
2018-03-24T22:53:15.579Z,15.67
2018-03-24T22:55:43.320Z,14.60
2018-03-24T22:58:12.752Z,15.33
2018-03-24T23:00:40.570Z,19.27
2018-03-24T23:03:07.936Z,15.77
2018-03-24T23:05:35.413Z,16.83
2018-03-24T23:08:02.790Z,18.67
2018-03-24T23:10:30.703Z,17.30
2018-03-24T23:12:58.435Z,17.20
2018-03-24T23:15:26.274Z,16.27
2018-03-24T23:17:53.623Z,14.50
2018-03-24T23:20:24.906Z,14.43
2018-03-24T23:22:52.243Z,15.97
2018-03-24T23:25:19.737Z,18.07
2018-03-24T23:27:47.531Z,17.00
2018-03-24T23:30:14.985Z,19.40
2018-03-24T23:32:42.332Z,19.70
2018-03-24T23:35:10.630Z,14.30
2018-03-24T23:37:37.980Z,13.20
2018-03-24T23:40:05.455Z,14.33
2018-03-24T23:42:32.825Z,14.87
2018-03-24T23:45:00.305Z,15.30
2018-03-24T23:47:32.214Z,16.57
2018-03-24T23:49:59.977Z,15.07
2018-03-24T23:52:27.727Z,16.73
2018-03-24T23:54:55.469Z,17.30
2018-03-24T23:57:22.864Z,16.07
2018-03-24T23:59:50.703Z,16.73
